createdAt,value
2019-01-14T00:00:16.833Z,97423.92
2019-01-14T00:01:18.072Z,97420.66
2019-01-14T00:02:19.307Z,97422.53
2019-01-14T00:03:20.580Z,97426.55
2019-01-14T00:04:21.818Z,97431.32
2019-01-14T00:05:23.063Z,97420.08
2019-01-14T00:06:24.301Z,97418.16
2019-01-14T00:07:25.540Z,97418.98
2019-01-14T00:08:26.783Z,97423.22
2019-01-14T00:09:31.238Z,97429.61
2019-01-14T00:10:31.166Z,97421.30
2019-01-14T00:11:32.400Z,97417.83
2019-01-14T00:12:33.635Z,97426.89
2019-01-14T00:13:34.915Z,97426.06
2019-01-14T00:14:36.245Z,97438.11
2019-01-14T00:15:37.485Z,97445.84
2019-01-14T00:16:38.728Z,97436.48
2019-01-14T00:17:39.964Z,97444.21
2019-01-14T00:18:41.210Z,97448.22
2019-01-14T00:19:42.352Z,97444.21
2019-01-14T00:20:43.489Z,97447.42
2019-01-14T00:21:44.735Z,97449.27
2019-01-14T00:22:45.978Z,97451.95
2019-01-14T00:23:47.232Z,97451.14
2019-01-14T00:24:48.468Z,97449.81
2019-01-14T00:25:49.606Z,97451.66
2019-01-14T00:26:51.018Z,97451.36
2019-01-14T00:27:52.163Z,97455.66
2019-01-14T00:28:53.422Z,97456.20
2019-01-14T00:29:54.666Z,97457.25
2019-01-14T00:30:55.906Z,97456.95
2019-01-14T00:31:57.143Z,97458.30
2019-01-14T00:32:58.322Z,97460.14
2019-01-14T00:33:59.576Z,97461.48
2019-01-14T00:35:00.817Z,97465.49
2019-01-14T00:36:02.057Z,97456.66
2019-01-14T00:37:03.309Z,97466.83
2019-01-14T00:38:04.437Z,97459.55
2019-01-14T00:39:05.986Z,97467.58
2019-01-14T00:40:13.066Z,97453.38
2019-01-14T00:41:14.309Z,97460.60
2019-01-14T00:42:16.046Z,97467.29
2019-01-14T00:43:17.464Z,97456.30
2019-01-14T00:44:18.747Z,97461.64
2019-01-14T00:45:19.989Z,97462.69
2019-01-14T00:46:21.233Z,97449.31
2019-01-14T00:47:22.487Z,97461.36
2019-01-14T00:48:23.734Z,97452.20
2019-01-14T00:49:25.017Z,97458.39
2019-01-14T00:50:26.270Z,97457.80
2019-01-14T00:51:27.498Z,97459.64
2019-01-14T00:52:28.744Z,97458.55
2019-01-14T00:53:29.989Z,97462.27
2019-01-14T00:54:31.253Z,97453.95
2019-01-14T00:55:32.489Z,97455.30
2019-01-14T00:56:33.626Z,97457.67
2019-01-14T00:57:34.871Z,97460.35
2019-01-14T00:58:36.118Z,97471.56
2019-01-14T00:59:37.374Z,97460.35
2019-01-14T01:00:38.613Z,97461.69
2019-01-14T01:01:39.854Z,97471.56
2019-01-14T01:02:41.091Z,97472.39
2019-01-14T01:03:42.326Z,97472.39
2019-01-14T01:04:43.612Z,97472.09
2019-01-14T01:05:44.849Z,97474.48
2019-01-14T01:06:47.185Z,97468.30
2019-01-14T01:07:48.422Z,97476.86
2019-01-14T01:08:50.064Z,97479.53
2019-01-14T01:09:51.324Z,97470.68
2019-01-14T01:10:52.564Z,97469.87
2019-01-14T01:11:53.705Z,97470.92
2019-01-14T01:12:54.946Z,97479.98
2019-01-14T01:13:58.362Z,97469.00
2019-01-14T01:14:59.614Z,97489.05
2019-01-14T01:16:00.860Z,97482.38
2019-01-14T01:17:02.098Z,97479.70
2019-01-14T01:18:03.744Z,97473.22
2019-01-14T01:19:04.977Z,97472.42
2019-01-14T01:20:09.631Z,97474.05
2019-01-14T01:21:10.770Z,97484.45
2019-01-14T01:22:12.015Z,97476.95
2019-01-14T01:23:13.258Z,97485.80
2019-01-14T01:24:14.489Z,97487.34
2019-01-14T01:25:15.970Z,97490.31
2019-01-14T01:26:17.212Z,97483.84
2019-01-14T01:27:18.459Z,97472.13
2019-01-14T01:28:19.594Z,97489.52
2019-01-14T01:29:20.834Z,97478.49
2019-01-14T01:30:21.988Z,97483.04
2019-01-14T01:31:23.209Z,97489.19
2019-01-14T01:32:24.323Z,97483.55
2019-01-14T01:33:25.448Z,97479.83
2019-01-14T01:34:26.680Z,97491.57
2019-01-14T01:35:27.805Z,97489.11
2019-01-14T01:36:32.012Z,97490.23
2019-01-14T01:37:32.037Z,97493.95
2019-01-14T01:38:33.156Z,97489.11
2019-01-14T01:39:34.270Z,97495.29
2019-01-14T01:40:35.497Z,97490.23
2019-01-14T01:41:36.616Z,97483.25
2019-01-14T01:42:37.724Z,97488.09
2019-01-14T01:43:38.855Z,97485.42
2019-01-14T01:44:39.964Z,97496.92
2019-01-14T01:45:41.093Z,97498.79
2019-01-14T01:46:42.308Z,97499.30
2019-01-14T01:47:43.620Z,97492.61
2019-01-14T01:48:44.733Z,97494.45
2019-01-14T01:49:45.841Z,97497.96
2019-01-14T01:50:46.966Z,97499.30
2019-01-14T01:51:48.081Z,97489.61
2019-01-14T01:52:49.193Z,97491.66
2019-01-14T01:53:50.304Z,97498.97
2019-01-14T01:54:51.417Z,97502.98
2019-01-14T01:55:52.540Z,97497.88
2019-01-14T01:56:53.660Z,97497.34
2019-01-14T01:57:54.784Z,97487.19
2019-01-14T01:58:55.994Z,97492.74
2019-01-14T01:59:57.100Z,97500.77
2019-01-14T02:00:58.260Z,97489.56
2019-01-14T02:01:59.479Z,97454.95
2019-01-14T02:03:00.698Z,97492.45
2019-01-14T02:04:01.911Z,97480.95
2019-01-14T02:05:05.331Z,97490.82
2019-01-14T02:06:06.469Z,97483.34
2019-01-14T02:07:07.685Z,97492.16
2019-01-14T02:08:08.802Z,97495.88
2019-01-14T02:09:09.914Z,97488.59
2019-01-14T02:10:16.553Z,97494.78
2019-01-14T02:11:17.676Z,97493.95
2019-01-14T02:12:18.787Z,97489.94
2019-01-14T02:13:19.993Z,97492.11
2019-01-14T02:14:21.401Z,97481.92
2019-01-14T02:15:22.512Z,97478.73
2019-01-14T02:16:25.969Z,97479.78
2019-01-14T02:17:27.073Z,97470.93
2019-01-14T02:18:28.280Z,97478.95
2019-01-14T02:19:29.400Z,97488.31
2019-01-14T02:20:30.497Z,97486.67
2019-01-14T02:21:31.624Z,97481.03
2019-01-14T02:22:32.737Z,97489.34
2019-01-14T02:23:33.857Z,97484.25
2019-01-14T02:24:34.970Z,97489.05
2019-01-14T02:25:36.075Z,97480.74
2019-01-14T02:26:37.197Z,97487.42
2019-01-14T02:27:38.317Z,97489.05
2019-01-14T02:28:39.525Z,97499.70
2019-01-14T02:29:40.639Z,97495.45
2019-01-14T02:30:41.746Z,97484.75
2019-01-14T02:31:42.868Z,97494.86
2019-01-14T02:32:43.980Z,97502.38
2019-01-14T02:33:45.209Z,97496.73
2019-01-14T02:34:46.308Z,97505.26
2019-01-14T02:35:47.519Z,97492.94
2019-01-14T02:36:48.835Z,97503.63
2019-01-14T02:37:50.073Z,97497.48
2019-01-14T02:38:51.165Z,97491.30
2019-01-14T02:39:52.263Z,97491.02
2019-01-14T02:40:53.383Z,97499.03
2019-01-14T02:41:54.643Z,97500.87
2019-01-14T02:42:55.757Z,97499.23
2019-01-14T02:43:56.885Z,97492.27
2019-01-14T02:44:58.000Z,97502.95
2019-01-14T02:45:59.219Z,97499.48
2019-01-14T02:47:00.886Z,97501.11
2019-01-14T02:48:02.301Z,97507.50
2019-01-14T02:49:03.513Z,97500.52
2019-01-14T02:50:07.829Z,97501.62
2019-01-14T02:51:09.040Z,97508.30
2019-01-14T02:52:10.175Z,97496.81
2019-01-14T02:53:11.289Z,97484.48
2019-01-14T02:54:12.405Z,97505.88
2019-01-14T02:55:13.929Z,97499.69
2019-01-14T02:56:15.038Z,97503.41
2019-01-14T02:57:16.159Z,97510.63
2019-01-14T02:58:17.274Z,97500.44
2019-01-14T02:59:18.385Z,97506.32
2019-01-14T03:00:22.200Z,97511.67
2019-01-14T03:01:23.413Z,97496.67
2019-01-14T03:02:24.537Z,97491.33
2019-01-14T03:03:25.753Z,97496.13
2019-01-14T03:04:26.865Z,97489.70
2019-01-14T03:05:28.081Z,97494.00
2019-01-14T03:06:29.292Z,97489.70
2019-01-14T03:07:30.420Z,97491.83
2019-01-14T03:08:31.638Z,97492.37
2019-01-14T03:09:32.861Z,97489.98
2019-01-14T03:10:33.966Z,97495.05
2019-01-14T03:11:35.073Z,97493.17
2019-01-14T03:12:36.200Z,97493.17
2019-01-14T03:13:37.317Z,97494.00
2019-01-14T03:14:38.425Z,97491.83
2019-01-14T03:15:39.554Z,97491.03
2019-01-14T03:16:40.766Z,97477.67
2019-01-14T03:17:41.995Z,97476.03
2019-01-14T03:18:43.100Z,97492.08
2019-01-14T03:19:44.317Z,97481.09
2019-01-14T03:20:45.420Z,97488.28
2019-01-14T03:21:46.536Z,97482.13
2019-01-14T03:22:47.661Z,97490.15
2019-01-14T03:23:48.777Z,97495.49
2019-01-14T03:24:49.899Z,97484.80
2019-01-14T03:25:58.071Z,97499.50
2019-01-14T03:26:54.032Z,97491.48
2019-01-14T03:27:55.160Z,97503.22
2019-01-14T03:28:56.375Z,97504.55
2019-01-14T03:29:57.487Z,97497.88
2019-01-14T03:30:58.602Z,97495.20
2019-01-14T03:31:59.719Z,97501.59
2019-01-14T03:33:00.871Z,97501.59
2019-01-14T03:34:02.093Z,97494.08
2019-01-14T03:35:05.011Z,97496.75
2019-01-14T03:36:06.122Z,97505.59
2019-01-14T03:37:07.338Z,97486.59
2019-01-14T03:38:08.466Z,97499.95
2019-01-14T03:39:09.588Z,97487.64
2019-01-14T03:40:13.006Z,97494.31
2019-01-14T03:41:14.121Z,97489.47
2019-01-14T03:42:15.232Z,97499.66
2019-01-14T03:43:16.537Z,97504.71
2019-01-14T03:44:17.655Z,97496.40
2019-01-14T03:45:18.771Z,97498.23
2019-01-14T03:46:19.892Z,97496.10
2019-01-14T03:47:21.012Z,97492.09
2019-01-14T03:48:22.143Z,97493.13
2019-01-14T03:49:23.408Z,97492.59
2019-01-14T03:50:24.516Z,97489.42
2019-01-14T03:51:25.632Z,97480.07
2019-01-14T03:52:26.748Z,97483.54
2019-01-14T03:53:27.871Z,97477.39
2019-01-14T03:54:29.280Z,97477.16
2019-01-14T03:55:30.386Z,97475.82
2019-01-14T03:56:31.592Z,97467.00
2019-01-14T03:57:32.804Z,97469.67
2019-01-14T03:58:34.127Z,97466.17
2019-01-14T03:59:35.234Z,97472.64
2019-01-14T04:00:36.449Z,97465.13
2019-01-14T04:01:37.566Z,97466.17
2019-01-14T04:02:38.779Z,97471.01
2019-01-14T04:03:39.900Z,97464.83
2019-01-14T04:04:41.016Z,97458.69
2019-01-14T04:05:42.243Z,97459.20
2019-01-14T04:06:43.359Z,97458.16
2019-01-14T04:07:44.483Z,97462.41
2019-01-14T04:08:45.601Z,97459.73
2019-01-14T04:09:46.817Z,97463.74
2019-01-14T04:10:47.932Z,97457.56
2019-01-14T04:11:49.043Z,97455.73
2019-01-14T04:12:50.158Z,97457.06
2019-01-14T04:13:51.398Z,97454.39
2019-01-14T04:14:52.514Z,97450.88
2019-01-14T04:15:53.632Z,97449.05
2019-01-14T04:16:54.852Z,97454.69
2019-01-14T04:17:56.064Z,97445.03
2019-01-14T04:18:57.190Z,97450.38
2019-01-14T04:19:58.312Z,97447.70
2019-01-14T04:20:59.586Z,97450.38
2019-01-14T04:22:00.804Z,97449.05
2019-01-14T04:23:01.921Z,97451.18
2019-01-14T04:24:03.248Z,97445.03
2019-01-14T04:25:05.865Z,97451.72
2019-01-14T04:26:06.979Z,97451.18
2019-01-14T04:27:08.092Z,97451.42
2019-01-14T04:28:09.307Z,97449.55
2019-01-14T04:29:10.430Z,97450.88
2019-01-14T04:30:15.153Z,97446.88
2019-01-14T04:31:16.269Z,97450.09
2019-01-14T04:32:17.385Z,97455.73
2019-01-14T04:33:18.498Z,97452.22
2019-01-14T04:34:19.808Z,97453.56
2019-01-14T04:35:21.142Z,97457.06
2019-01-14T04:36:22.353Z,97456.52
2019-01-14T04:37:23.576Z,97451.72
2019-01-14T04:38:24.685Z,97452.52
2019-01-14T04:39:25.944Z,97447.70
2019-01-14T04:40:27.034Z,97449.55
2019-01-14T04:41:28.150Z,97451.72
2019-01-14T04:42:29.369Z,97453.34
2019-01-14T04:43:30.489Z,97452.52
2019-01-14T04:44:31.785Z,97450.14
2019-01-14T04:45:32.999Z,97445.33
2019-01-14T04:46:34.113Z,97454.69
2019-01-14T04:47:35.330Z,97444.80
2019-01-14T04:48:36.441Z,97450.97
2019-01-14T04:49:37.668Z,97451.27
2019-01-14T04:50:38.780Z,97448.59
2019-01-14T04:51:40.152Z,97448.88
2019-01-14T04:52:41.263Z,97440.87
2019-01-14T04:53:42.372Z,97441.91
2019-01-14T04:54:43.621Z,97440.87
2019-01-14T04:55:44.838Z,97438.19
2019-01-14T04:56:45.959Z,97434.19
2019-01-14T04:57:47.076Z,97435.52
2019-01-14T04:58:48.187Z,97436.86
2019-01-14T04:59:49.312Z,97436.56
2019-01-14T05:00:50.432Z,97435.52
2019-01-14T05:01:51.543Z,97433.89
2019-01-14T05:02:52.659Z,97438.19
2019-01-14T05:03:53.786Z,97435.52
2019-01-14T05:04:54.999Z,97437.90
2019-01-14T05:05:56.108Z,97434.69
2019-01-14T05:06:57.328Z,97438.70
2019-01-14T05:07:58.438Z,97438.19
2019-01-14T05:08:59.655Z,97438.19
2019-01-14T05:10:00.784Z,97438.19
2019-01-14T05:11:01.897Z,97438.99
2019-01-14T05:12:03.110Z,97435.52
2019-01-14T05:13:04.222Z,97442.79
2019-01-14T05:14:05.334Z,97432.61
2019-01-14T05:15:09.181Z,97436.11
2019-01-14T05:16:10.288Z,97431.56
2019-01-14T05:17:11.407Z,97436.91
2019-01-14T05:18:12.516Z,97435.06
2019-01-14T05:19:13.730Z,97436.70
2019-01-14T05:20:17.691Z,97435.36
2019-01-14T05:21:18.792Z,97445.22
2019-01-14T05:22:20.008Z,97443.67
2019-01-14T05:23:21.230Z,97442.84
2019-01-14T05:24:22.345Z,97445.01
2019-01-14T05:25:23.573Z,97445.01
2019-01-14T05:26:24.690Z,97441.30
2019-01-14T05:27:25.797Z,97434.32
2019-01-14T05:28:27.012Z,97435.66
2019-01-14T05:29:28.232Z,97435.66
2019-01-14T05:30:29.361Z,97443.67
2019-01-14T05:31:30.471Z,97437.28
2019-01-14T05:32:31.690Z,97432.98
2019-01-14T05:33:32.908Z,97435.95
2019-01-14T05:34:34.032Z,97432.98
2019-01-14T05:35:35.167Z,97435.66
2019-01-14T05:36:36.279Z,97438.63
2019-01-14T05:37:38.170Z,97436.45
2019-01-14T05:38:39.422Z,97434.61
2019-01-14T05:39:40.532Z,97434.32
2019-01-14T05:40:41.769Z,97432.98
2019-01-14T05:41:42.880Z,97429.77
2019-01-14T05:42:43.993Z,97441.30
2019-01-14T05:43:45.108Z,97436.45
2019-01-14T05:44:46.280Z,97439.42
2019-01-14T05:45:47.395Z,97437.28
2019-01-14T05:46:48.517Z,97437.88
2019-01-14T05:47:49.770Z,97437.88
2019-01-14T05:48:50.987Z,97425.55
2019-01-14T05:49:52.098Z,97434.37
2019-01-14T05:50:53.222Z,97435.70
2019-01-14T05:51:54.432Z,97434.91
2019-01-14T05:52:55.545Z,97436.24
2019-01-14T05:53:57.777Z,97437.04
2019-01-14T05:54:58.884Z,97438.38
2019-01-14T05:56:00.015Z,97433.86
2019-01-14T05:57:01.127Z,97445.89
2019-01-14T05:58:02.540Z,97445.35
2019-01-14T05:59:03.673Z,97443.52
2019-01-14T06:00:20.453Z,97437.88
2019-01-14T06:01:21.583Z,97432.82
2019-01-14T06:02:22.802Z,97434.45
2019-01-14T06:03:23.916Z,97437.88
2019-01-14T06:04:25.034Z,97439.20
2019-01-14T06:05:26.146Z,97441.88
2019-01-14T06:06:27.369Z,97443.22
2019-01-14T06:07:28.488Z,97438.38
2019-01-14T06:08:29.604Z,97434.91
2019-01-14T06:09:30.713Z,97441.34
2019-01-14T06:10:31.826Z,97438.75
2019-01-14T06:11:33.066Z,97444.60
2019-01-14T06:12:34.175Z,97439.34
2019-01-14T06:13:35.294Z,97435.91
2019-01-14T06:14:36.405Z,97440.80
2019-01-14T06:15:37.601Z,97441.47
2019-01-14T06:16:38.728Z,97442.11
2019-01-14T06:17:39.848Z,97444.32
2019-01-14T06:18:40.954Z,97445.49
2019-01-14T06:19:42.169Z,97443.22
2019-01-14T06:20:43.388Z,97446.85
2019-01-14T06:21:44.522Z,97449.36
2019-01-14T06:22:45.645Z,97448.95
2019-01-14T06:23:46.766Z,97449.69
2019-01-14T06:24:51.042Z,97451.73
2019-01-14T06:25:52.142Z,97448.88
2019-01-14T06:26:53.273Z,97449.59
2019-01-14T06:27:54.390Z,97451.33
2019-01-14T06:28:55.503Z,97449.89
2019-01-14T06:29:56.621Z,97449.25
2019-01-14T06:30:57.735Z,97452.63
2019-01-14T06:31:58.867Z,97454.37
2019-01-14T06:33:00.177Z,97444.64
2019-01-14T06:34:01.292Z,97442.39
2019-01-14T06:35:03.818Z,97450.31
2019-01-14T06:36:04.935Z,97444.56
2019-01-14T06:37:06.082Z,97448.97
2019-01-14T06:38:07.197Z,97445.06
2019-01-14T06:39:08.811Z,97446.80
2019-01-14T06:40:13.018Z,97450.41
2019-01-14T06:41:14.134Z,97448.34
2019-01-14T06:42:15.371Z,97451.66
2019-01-14T06:43:16.482Z,97449.63
2019-01-14T06:44:17.596Z,97447.27
2019-01-14T06:45:18.704Z,97449.25
2019-01-14T06:46:19.821Z,97452.79
2019-01-14T06:47:20.945Z,97449.92
2019-01-14T06:48:22.127Z,97451.61
2019-01-14T06:49:23.240Z,97453.81
2019-01-14T06:50:24.354Z,97452.51
2019-01-14T06:51:25.472Z,97458.73
2019-01-14T06:52:26.596Z,97454.23
2019-01-14T06:53:27.714Z,97457.48
2019-01-14T06:54:29.533Z,97454.03
2019-01-14T06:55:30.985Z,97457.30
2019-01-14T06:56:32.203Z,97453.59
2019-01-14T06:57:33.326Z,97457.67
2019-01-14T06:58:34.545Z,97464.44
2019-01-14T06:59:35.651Z,97469.83
2019-01-14T07:00:36.767Z,97464.47
2019-01-14T07:01:37.882Z,97470.95
2019-01-14T07:02:39.104Z,97469.61
2019-01-14T07:03:40.216Z,97476.06
2019-01-14T07:04:41.338Z,97470.19
2019-01-14T07:05:42.553Z,97478.23
2019-01-14T07:06:43.666Z,97479.03
2019-01-14T07:07:44.893Z,97474.23
2019-01-14T07:08:46.001Z,97473.44
2019-01-14T07:09:47.187Z,97479.60
2019-01-14T07:10:48.501Z,97476.41
2019-01-14T07:11:49.808Z,97480.43
2019-01-14T07:12:50.928Z,97484.74
2019-01-14T07:13:52.046Z,97477.20
2019-01-14T07:14:53.152Z,97486.59
2019-01-14T07:15:54.264Z,97483.91
2019-01-14T07:16:55.376Z,97490.10
2019-01-14T07:17:56.597Z,97487.42
2019-01-14T07:18:57.708Z,97488.98
2019-01-14T07:19:59.024Z,97492.21
2019-01-14T07:21:00.133Z,97487.91
2019-01-14T07:22:01.245Z,97492.16
2019-01-14T07:23:02.509Z,97494.03
2019-01-14T07:24:03.629Z,97488.89
2019-01-14T07:25:06.537Z,97491.29
2019-01-14T07:26:07.648Z,97486.69
2019-01-14T07:27:08.768Z,97482.67
2019-01-14T07:28:10.020Z,97485.61
2019-01-14T07:29:11.237Z,97490.69
2019-01-14T07:30:14.945Z,97488.77
2019-01-14T07:31:16.049Z,97496.56
2019-01-14T07:32:17.163Z,97489.05
2019-01-14T07:33:18.384Z,97496.81
2019-01-14T07:34:19.500Z,97492.25
2019-01-14T07:35:20.722Z,97489.56
2019-01-14T07:36:21.844Z,97494.93
2019-01-14T07:37:22.952Z,97487.42
2019-01-14T07:38:24.109Z,97488.77
2019-01-14T07:39:25.224Z,97490.11
2019-01-14T07:40:26.447Z,97494.93
2019-01-14T07:41:27.562Z,97488.77
2019-01-14T07:42:28.671Z,97491.92
2019-01-14T07:43:29.804Z,97490.59
2019-01-14T07:44:30.914Z,97486.88
2019-01-14T07:45:32.022Z,97489.56
2019-01-14T07:46:33.132Z,97492.25
2019-01-14T07:47:34.244Z,97491.73
2019-01-14T07:48:35.544Z,97492.53
2019-01-14T07:49:36.764Z,97489.85
2019-01-14T07:50:37.993Z,97497.89
2019-01-14T07:51:39.096Z,97497.89
2019-01-14T07:52:40.506Z,97499.49
2019-01-14T07:53:41.657Z,97503.80
2019-01-14T07:54:42.771Z,97501.13
2019-01-14T07:55:43.976Z,97501.92
2019-01-14T07:56:45.400Z,97502.97
2019-01-14T07:57:46.658Z,97502.47
2019-01-14T07:58:47.884Z,97507.00
2019-01-14T07:59:49.003Z,97506.20
2019-01-14T08:00:50.116Z,97502.17
2019-01-14T08:01:51.235Z,97509.36
2019-01-14T08:02:52.549Z,97507.22
2019-01-14T08:03:53.679Z,97509.58
2019-01-14T08:04:54.788Z,97505.81
2019-01-14T08:05:55.908Z,97513.86
2019-01-14T08:06:57.020Z,97507.38
2019-01-14T08:07:58.229Z,97510.05
2019-01-14T08:08:59.357Z,97511.11
2019-01-14T08:10:00.568Z,97508.91
2019-01-14T08:11:01.735Z,97511.59
2019-01-14T08:12:03.051Z,97506.19
2019-01-14T08:13:04.165Z,97513.69
2019-01-14T08:14:05.391Z,97513.41
2019-01-14T08:15:12.798Z,97510.44
2019-01-14T08:16:14.016Z,97514.45
2019-01-14T08:17:15.124Z,97516.84
2019-01-14T08:18:16.340Z,97516.56
2019-01-14T08:19:17.492Z,97515.22
2019-01-14T08:20:18.712Z,97517.61
2019-01-14T08:21:19.941Z,97516.56
2019-01-14T08:22:21.066Z,97520.58
2019-01-14T08:23:22.175Z,97527.83
2019-01-14T08:24:23.309Z,97530.51
2019-01-14T08:25:24.427Z,97523.80
2019-01-14T08:26:25.542Z,97529.97
2019-01-14T08:27:26.660Z,97534.81
2019-01-14T08:28:27.777Z,97533.47
2019-01-14T08:29:28.908Z,97528.62
2019-01-14T08:30:30.025Z,97531.59
2019-01-14T08:31:31.244Z,97534.27
2019-01-14T08:32:32.457Z,97541.27
2019-01-14T08:33:33.574Z,97538.30
2019-01-14T08:34:34.692Z,97538.30
2019-01-14T08:35:35.924Z,97545.83
2019-01-14T08:36:37.156Z,97536.73
2019-01-14T08:37:38.271Z,97546.63
2019-01-14T08:38:39.381Z,97542.09
2019-01-14T08:39:40.588Z,97539.41
2019-01-14T08:40:41.720Z,97543.73
2019-01-14T08:41:44.737Z,97545.06
2019-01-14T08:42:46.045Z,97538.87
2019-01-14T08:43:48.453Z,97549.89
2019-01-14T08:44:49.766Z,97544.52
2019-01-14T08:45:51.084Z,97544.23
2019-01-14T08:46:52.192Z,97549.09
2019-01-14T08:47:53.303Z,97548.26
2019-01-14T08:48:54.419Z,97555.25
2019-01-14T08:49:55.572Z,97548.55
2019-01-14T08:50:56.676Z,97558.98
2019-01-14T08:51:57.789Z,97557.64
2019-01-14T08:52:58.911Z,97557.89
2019-01-14T08:54:00.125Z,97558.69
2019-01-14T08:55:01.251Z,97556.84
2019-01-14T08:56:02.461Z,97564.05
2019-01-14T08:57:03.677Z,97555.21
2019-01-14T08:58:04.897Z,97565.39
2019-01-14T08:59:06.109Z,97568.91
2019-01-14T09:00:16.268Z,97560.03
2019-01-14T09:01:17.493Z,97568.08
2019-01-14T09:02:18.605Z,97573.44
2019-01-14T09:03:19.715Z,97569.41
2019-01-14T09:04:23.349Z,97573.44
2019-01-14T09:05:23.951Z,97572.64
2019-01-14T09:06:25.183Z,97576.95
2019-01-14T09:07:26.303Z,97584.45
2019-01-14T09:08:28.796Z,97573.73
2019-01-14T09:09:30.259Z,97583.41
2019-01-14T09:10:31.479Z,97587.42
2019-01-14T09:11:32.739Z,97590.39
2019-01-14T09:12:33.849Z,97581.84
2019-01-14T09:13:34.960Z,97581.30
2019-01-14T09:14:36.076Z,97592.60
2019-01-14T09:15:37.188Z,97588.87
2019-01-14T09:16:38.346Z,97588.58
2019-01-14T09:17:39.457Z,97591.84
2019-01-14T09:18:40.567Z,97590.20
2019-01-14T09:19:41.676Z,97581.41
2019-01-14T09:20:42.788Z,97595.64
2019-01-14T09:21:43.916Z,97588.39
2019-01-14T09:22:45.232Z,97587.05
2019-01-14T09:23:46.347Z,97595.71
2019-01-14T09:24:47.462Z,97596.44
2019-01-14T09:25:53.772Z,97599.13
2019-01-14T09:26:51.606Z,97603.43
2019-01-14T09:27:52.743Z,97597.78
2019-01-14T09:28:53.852Z,97599.95
2019-01-14T09:29:54.964Z,97596.22
2019-01-14T09:30:56.196Z,97596.51
2019-01-14T09:31:57.544Z,97598.90
2019-01-14T09:32:58.657Z,97599.41
2019-01-14T09:34:00.068Z,97599.73
2019-01-14T09:35:01.172Z,97594.37
2019-01-14T09:36:02.698Z,97602.19
2019-01-14T09:37:03.934Z,97591.69
2019-01-14T09:38:05.140Z,97587.98
2019-01-14T09:39:06.906Z,97599.00
2019-01-14T09:40:11.672Z,97599.51
2019-01-14T09:41:12.880Z,97591.47
2019-01-14T09:42:14.106Z,97596.83
2019-01-14T09:43:15.208Z,97588.46
2019-01-14T09:44:16.422Z,97598.70
2019-01-14T09:45:17.533Z,97606.21
2019-01-14T09:46:18.652Z,97604.55
2019-01-14T09:47:19.779Z,97606.44
2019-01-14T09:48:20.889Z,97603.21
2019-01-14T09:49:22.100Z,97610.45
2019-01-14T09:50:23.221Z,97609.44
2019-01-14T09:51:24.337Z,97612.31
2019-01-14T09:52:25.478Z,97607.45
2019-01-14T09:53:26.579Z,97620.86
2019-01-14T09:54:27.795Z,97609.56
2019-01-14T09:55:28.911Z,97617.60
2019-01-14T09:56:30.024Z,97616.80
2019-01-14T09:57:31.154Z,97616.52
2019-01-14T09:58:32.261Z,97606.00
2019-01-14T09:59:33.376Z,97618.36
2019-01-14T10:00:34.488Z,97627.45
2019-01-14T10:01:36.099Z,97632.02
2019-01-14T10:02:37.624Z,97623.03
2019-01-14T10:03:38.735Z,97616.16
2019-01-14T10:04:39.846Z,97630.90
2019-01-14T10:05:41.061Z,97638.66
2019-01-14T10:06:42.273Z,97631.95
2019-01-14T10:07:43.720Z,97642.67
2019-01-14T10:08:44.833Z,97635.97
2019-01-14T10:09:45.948Z,97640.53
2019-01-14T10:10:47.067Z,97640.53
2019-01-14T10:11:48.180Z,97639.41
2019-01-14T10:12:49.429Z,97645.31
2019-01-14T10:13:50.546Z,97644.48
2019-01-14T10:14:51.753Z,97650.68
2019-01-14T10:15:52.962Z,97649.84
2019-01-14T10:16:54.968Z,97645.31
2019-01-14T10:17:58.020Z,97650.42
2019-01-14T10:18:59.438Z,97656.84
2019-01-14T10:20:01.065Z,97659.52
2019-01-14T10:21:02.277Z,97651.48
2019-01-14T10:22:03.384Z,97650.03
2019-01-14T10:23:04.620Z,97650.14
2019-01-14T10:24:05.728Z,97655.80
2019-01-14T10:25:07.642Z,97653.66
2019-01-14T10:26:09.358Z,97658.77
2019-01-14T10:27:10.576Z,97650.42
2019-01-14T10:28:11.736Z,97655.80
2019-01-14T10:29:12.849Z,97661.98
2019-01-14T10:30:17.265Z,97660.10
2019-01-14T10:31:19.878Z,97658.77
2019-01-14T10:32:21.568Z,97671.66
2019-01-14T10:33:22.698Z,97665.75
2019-01-14T10:34:23.917Z,97662.27
2019-01-14T10:35:25.031Z,97662.56
2019-01-14T10:36:26.264Z,97661.73
2019-01-14T10:37:27.389Z,97659.05
2019-01-14T10:38:28.513Z,97667.09
2019-01-14T10:39:29.624Z,97666.05
2019-01-14T10:40:30.742Z,97672.75
2019-01-14T10:41:31.858Z,97664.41
2019-01-14T10:42:32.975Z,97665.25
2019-01-14T10:43:34.100Z,97666.05
2019-01-14T10:44:35.212Z,97658.00
2019-01-14T10:45:36.328Z,97667.39
2019-01-14T10:46:37.550Z,97672.75
2019-01-14T10:47:38.767Z,97669.48
2019-01-14T10:48:39.922Z,97677.23
2019-01-14T10:49:41.044Z,97668.91
2019-01-14T10:50:42.156Z,97670.53
2019-01-14T10:51:43.269Z,97669.73
2019-01-14T10:52:44.380Z,97672.42
2019-01-14T10:53:45.520Z,97661.91
2019-01-14T10:54:46.636Z,97684.99
2019-01-14T10:55:47.854Z,97677.48
2019-01-14T10:56:48.972Z,97661.91
2019-01-14T10:57:50.085Z,97659.23
2019-01-14T10:58:51.213Z,97661.63
2019-01-14T10:59:52.330Z,97669.66
2019-01-14T11:00:53.444Z,97677.95
2019-01-14T11:01:54.557Z,97677.67
2019-01-14T11:02:55.974Z,97670.96
2019-01-14T11:03:57.293Z,97664.48
2019-01-14T11:04:58.618Z,97670.09
2019-01-14T11:05:59.729Z,97672.48
2019-01-14T11:07:00.949Z,97677.84
2019-01-14T11:08:02.062Z,97684.25
2019-01-14T11:09:06.410Z,97674.04
2019-01-14T11:10:09.118Z,97672.41
2019-01-14T11:11:10.477Z,97670.78
2019-01-14T11:12:11.696Z,97666.75
2019-01-14T11:13:13.013Z,97683.05
2019-01-14T11:14:14.137Z,97675.55
2019-01-14T11:15:16.949Z,97682.47
2019-01-14T11:16:18.062Z,97681.13
2019-01-14T11:17:19.180Z,97677.36
2019-01-14T11:18:20.400Z,97677.07
2019-01-14T11:19:21.525Z,97682.44
2019-01-14T11:20:27.843Z,97678.12
2019-01-14T11:21:28.963Z,97672.76
2019-01-14T11:22:30.082Z,97668.73
2019-01-14T11:23:31.194Z,97665.23
2019-01-14T11:24:34.226Z,97686.91
2019-01-14T11:25:35.340Z,97686.38
2019-01-14T11:26:36.551Z,97680.72
2019-01-14T11:27:37.669Z,97686.63
2019-01-14T11:28:38.776Z,97688.47
2019-01-14T11:29:41.799Z,97686.34
2019-01-14T11:30:43.009Z,97682.02
2019-01-14T11:31:44.123Z,97687.38
2019-01-14T11:32:45.244Z,97689.52
2019-01-14T11:33:46.357Z,97661.66
2019-01-14T11:34:47.480Z,97701.83
2019-01-14T11:35:48.705Z,97694.59
2019-01-14T11:36:49.858Z,97687.89
2019-01-14T11:37:50.977Z,97703.46
2019-01-14T11:38:52.084Z,97696.77
2019-01-14T11:39:53.318Z,97702.13
2019-01-14T11:40:54.931Z,97718.71
2019-01-14T11:41:56.061Z,97709.33
2019-01-14T11:42:57.169Z,97703.97
2019-01-14T11:43:58.288Z,97705.85
2019-01-14T11:44:59.416Z,97698.31
2019-01-14T11:46:00.623Z,97705.85
2019-01-14T11:47:01.743Z,97709.58
2019-01-14T11:48:03.161Z,97721.64
2019-01-14T11:49:04.264Z,97713.59
2019-01-14T11:50:14.075Z,97709.80
2019-01-14T11:51:15.182Z,97720.00
2019-01-14T11:52:16.290Z,97721.05
2019-01-14T11:53:17.519Z,97713.02
2019-01-14T11:54:18.628Z,97728.27
2019-01-14T11:55:19.795Z,97728.80
2019-01-14T11:56:20.908Z,97734.16
2019-01-14T11:57:22.021Z,97738.39
2019-01-14T11:58:23.240Z,97729.55
2019-01-14T11:59:24.354Z,97734.91
2019-01-14T12:00:25.477Z,97726.58